Time;durP1;ratioP1;P1;durP2;ratioP2;P2;SDS_P1;SDS_P2;PMS_P1;PMS_P2;Temp;Humidity;BMP_temperature;BMP_pressure;BME280_temperature;BME280_humidity;BME280_pressure;Samples;Min_cycle;Max_cycle;Signal;HPM_P1;HPM_P2
2022/04/01 00:00:40;;;;;;;24.83;18.25;;;21.10;99.90;;;;;;5013137;28;20042;-52
2022/04/01 00:03:06;;;;;;;23.63;17.27;;;21.10;99.90;;;;;;5013855;28;20022;-53
2022/04/01 00:05:35;;;;;;;24.48;17.23;;;21.10;99.90;;;;;;5013923;28;20050;-53
2022/04/01 00:08:03;;;;;;;25.60;17.52;;;21.10;99.90;;;;;;5013703;28;20062;-53
2022/04/01 00:10:29;;;;;;;27.25;18.38;;;21.10;99.90;;;;;;5013633;28;20058;-54
2022/04/01 00:12:55;;;;;;;22.33;17.20;;;21.10;99.90;;;;;;5014099;28;20073;-53
2022/04/01 00:15:21;;;;;;;23.30;16.70;;;21.10;99.90;;;;;;5013620;28;20034;-52
2022/04/01 00:17:47;;;;;;;22.55;17.15;;;21.10;99.90;;;;;;5013514;28;20025;-53
2022/04/01 00:20:14;;;;;;;23.67;17.13;;;21.10;99.90;;;;;;5013586;28;20025;-51
2022/04/01 00:22:40;;;;;;;23.65;17.13;;;21.10;99.90;;;;;;5013565;28;20022;-52
2022/04/01 00:25:06;;;;;;;20.90;15.50;;;21.10;99.90;;;;;;5013355;28;20028;-50
2022/04/01 00:27:33;;;;;;;19.45;15.82;;;21.10;99.90;;;;;;5013492;28;20103;-51
2022/04/01 00:29:59;;;;;;;21.30;15.43;;;21.10;99.90;;;;;;5013523;28;20427;-52
2022/04/01 00:32:25;;;;;;;18.30;15.05;;;21.10;99.90;;;;;;5013445;28;20073;-53
2022/04/01 00:34:51;;;;;;;21.55;15.77;;;21.10;99.90;;;;;;5013234;28;20041;-53
2022/04/01 00:37:18;;;;;;;21.88;15.85;;;21.10;99.90;;;;;;5013244;28;20041;-53
2022/04/01 00:39:44;;;;;;;21.48;16.10;;;21.10;99.90;;;;;;5013349;28;20061;-53
2022/04/01 00:42:11;;;;;;;21.77;16.02;;;21.10;99.90;;;;;;5013188;28;20109;-52
2022/04/01 00:44:38;;;;;;;23.27;16.48;;;21.10;99.90;;;;;;5013037;28;20034;-53
2022/04/01 00:47:07;;;;;;;21.80;15.60;;;21.10;99.90;;;;;;5013112;28;20037;-53
2022/04/01 00:49:34;;;;;;;18.83;15.40;;;21.00;99.90;;;;;;5013015;28;20490;-54
2022/04/01 00:52:03;;;;;;;21.45;15.50;;;21.10;99.90;;;;;;5013173;28;20036;-53
2022/04/01 00:54:29;;;;;;;21.13;14.55;;;21.00;99.90;;;;;;5012934;28;20034;-53
2022/04/01 00:56:56;;;;;;;19.85;14.82;;;21.10;99.90;;;;;;5012890;28;20577;-53
2022/04/01 00:59:24;;;;;;;20.52;14.93;;;21.00;99.90;;;;;;5013218;28;20034;-54
2022/04/01 01:01:49;;;;;;;20.98;15.27;;;21.10;99.90;;;;;;5012780;28;20042;-53
2022/04/01 01:04:17;;;;;;;18.98;14.65;;;21.00;99.90;;;;;;5012765;28;20076;-54
2022/04/01 01:06:51;;;;;;;19.60;14.60;;;21.10;99.90;;;;;;5012881;28;20064;-54
2022/04/01 01:09:18;;;;;;;20.60;14.20;;;21.00;99.90;;;;;;5011987;28;20068;-53
2022/04/01 01:11:45;;;;;;;18.15;13.65;;;21.00;99.90;;;;;;5012696;28;20113;-53
2022/04/01 01:14:13;;;;;;;19.00;13.18;;;21.00;99.90;;;;;;5011280;28;20061;-52
2022/04/01 01:16:44;;;;;;;17.70;13.80;;;21.00;99.90;;;;;;5012638;28;20061;-54
2022/04/01 01:19:17;;;;;;;17.80;13.35;;;21.00;99.90;;;;;;5011252;28;20084;-53
2022/04/01 01:21:49;;;;;;;18.77;12.77;;;21.00;99.90;;;;;;5012515;28;20026;-53
2022/04/01 01:24:15;;;;;;;19.48;13.30;;;21.00;99.90;;;;;;5012467;28;20433;-53
2022/04/01 01:26:52;;;;;;;16.10;12.77;;;20.90;99.90;;;;;;5012314;28;20068;-53
2022/04/01 01:29:27;;;;;;;18.20;13.20;;;20.90;99.90;;;;;;5012560;28;20018;-53
2022/04/01 01:31:55;;;;;;;16.27;12.50;;;21.00;99.90;;;;;;5012236;28;20104;-51
2022/04/01 01:34:22;;;;;;;16.48;11.93;;;21.00;99.90;;;;;;5011989;28;20030;-52
2022/04/01 01:36:50;;;;;;;14.77;11.40;;;20.90;99.90;;;;;;5012268;28;20080;-51
2022/04/01 01:39:16;;;;;;;15.40;12.60;;;20.90;99.90;;;;;;5012019;28;20041;-52
2022/04/01 01:41:44;;;;;;;15.90;11.45;;;20.90;99.90;;;;;;5012099;28;20030;-52
2022/04/01 01:44:11;;;;;;;16.77;12.35;;;20.90;99.90;;;;;;5012110;28;20022;-52
2022/04/01 01:46:37;;;;;;;16.17;12.93;;;20.90;99.90;;;;;;5012058;28;20060;-52
2022/04/01 01:49:03;;;;;;;16.42;12.07;;;20.90;99.90;;;;;;5012159;28;20022;-51
2022/04/01 01:56:59;;;;;;;14.55;11.18;;;20.90;99.90;;;;;;5012039;28;20516;-52
2022/04/01 02:01:53;;;;;;;16.73;12.40;;;20.90;99.90;;;;;;5010370;28;20050;-67
2022/04/01 02:04:22;;;;;;;15.02;10.60;;;20.90;99.90;;;;;;5010383;28;20477;-67
2022/04/01 02:06:48;;;;;;;16.63;12.20;;;20.90;99.90;;;;;;5011707;28;20472;-67
2022/04/01 02:09:15;;;;;;;14.55;11.63;;;20.90;99.90;;;;;;5011683;28;20092;-67
2022/04/01 02:11:41;;;;;;;14.02;10.98;;;20.80;99.90;;;;;;5011750;28;20464;-67
2022/04/01 02:14:07;;;;;;;13.82;10.57;;;20.80;99.90;;;;;;5011772;28;20069;-67
2022/04/01 02:16:33;;;;;;;16.75;11.88;;;20.80;99.90;;;;;;5011851;28;20037;-67
2022/04/01 02:18:59;;;;;;;14.88;11.00;;;20.90;99.90;;;;;;5010225;28;20041;-67
2022/04/01 02:21:27;;;;;;;14.50;10.82;;;20.90;99.90;;;;;;5011617;28;20053;-67
2022/04/01 02:23:52;;;;;;;14.68;11.20;;;20.90;99.90;;;;;;5011551;28;20029;-67
2022/04/01 02:26:18;;;;;;;15.50;11.05;;;20.80;99.90;;;;;;5011601;28;20025;-67
2022/04/01 02:28:44;;;;;;;14.63;10.57;;;20.80;99.90;;;;;;5011542;28;20022;-66
2022/04/01 02:31:11;;;;;;;14.52;10.00;;;20.80;99.90;;;;;;5011485;28;20029;-66
2022/04/01 02:33:37;;;;;;;15.23;11.35;;;20.80;99.90;;;;;;5010328;28;20446;-67
2022/04/01 02:36:10;;;;;;;14.30;11.35;;;20.80;99.90;;;;;;5011628;28;20049;-66
2022/04/01 02:38:40;;;;;;;14.38;10.88;;;20.80;99.90;;;;;;5011717;28;20473;-63
2022/04/01 02:41:08;;;;;;;15.05;11.15;;;20.80;99.90;;;;;;5011509;28;20477;-63
2022/04/01 02:43:34;;;;;;;15.68;11.60;;;20.80;99.90;;;;;;5011537;28;20030;-63
2022/04/01 02:46:00;;;;;;;14.00;10.50;;;20.80;99.90;;;;;;5011402;28;20424;-64
2022/04/01 02:48:27;;;;;;;13.82;10.50;;;20.80;99.90;;;;;;5010123;28;20022;-63
2022/04/01 02:50:53;;;;;;;14.63;10.93;;;20.80;99.90;;;;;;5011331;28;20042;-63
2022/04/01 02:53:19;;;;;;;13.73;10.60;;;20.80;99.90;;;;;;5011143;28;20061;-68
2022/04/01 02:55:45;;;;;;;14.38;10.77;;;20.80;99.90;;;;;;5011192;28;20030;-68
2022/04/01 02:58:12;;;;;;;13.98;10.98;;;20.80;99.90;;;;;;5010135;28;20026;-69
2022/04/01 03:00:38;;;;;;;15.80;10.88;;;20.80;99.90;;;;;;5011818;28;20041;-68
2022/04/01 03:03:08;;;;;;;14.05;10.65;;;20.80;99.90;;;;;;5011436;28;20497;-66
2022/04/01 03:05:39;;;;;;;13.68;10.40;;;20.70;99.90;;;;;;5011413;28;20477;-68
2022/04/01 03:08:06;;;;;;;14.10;9.77;;;20.70;99.90;;;;;;5011349;28;20022;-68
2022/04/01 03:10:32;;;;;;;15.15;10.48;;;20.70;99.90;;;;;;5011029;28;20054;-67
2022/04/01 03:12:58;;;;;;;13.75;10.00;;;20.70;99.90;;;;;;5011146;28;20030;-67
2022/04/01 03:15:24;;;;;;;15.48;10.60;;;20.70;99.90;;;;;;5009754;28;20478;-67
2022/04/01 03:17:50;;;;;;;16.02;11.05;;;20.70;99.90;;;;;;5011031;28;20033;-68
2022/04/01 03:20:16;;;;;;;12.95;10.00;;;20.70;99.90;;;;;;5011025;28;20026;-67
2022/04/01 03:22:43;;;;;;;12.85;9.68;;;20.70;99.90;;;;;;5011077;28;20046;-68
2022/04/01 03:25:14;;;;;;;13.25;9.27;;;20.70;99.90;;;;;;5011073;28;20025;-68
2022/04/01 03:27:41;;;;;;;13.88;9.43;;;20.70;99.90;;;;;;5011116;28;20354;-67
2022/04/01 03:30:11;;;;;;;14.68;9.93;;;20.60;99.90;;;;;;5011308;28;20805;-68
2022/04/01 03:32:38;;;;;;;16.08;10.38;;;20.60;99.90;;;;;;5012003;28;20432;-67
2022/04/01 03:35:07;;;;;;;13.18;9.35;;;20.60;99.90;;;;;;5014321;28;20034;-68
2022/04/01 03:37:33;;;;;;;12.93;9.63;;;20.60;99.90;;;;;;5014377;28;20284;-67
2022/04/01 03:40:01;;;;;;;12.48;9.75;;;20.60;99.90;;;;;;5014352;28;20476;-69
2022/04/01 03:42:30;;;;;;;13.90;9.43;;;20.60;99.90;;;;;;5014385;28;20050;-68
2022/04/01 03:45:06;;;;;;;15.57;9.95;;;20.60;99.90;;;;;;5014300;28;20152;-68
2022/04/01 03:47:41;;;;;;;12.25;8.95;;;20.60;99.90;;;;;;5013057;28;20106;-68
2022/04/01 03:50:11;;;;;;;11.45;8.50;;;20.60;99.90;;;;;;5014240;28;20547;-67
2022/04/01 03:52:37;;;;;;;13.57;8.88;;;20.60;99.90;;;;;;5014156;28;20458;-68
2022/04/01 03:55:05;;;;;;;12.18;9.10;;;20.50;99.90;;;;;;5014040;28;20030;-68
2022/04/01 03:57:37;;;;;;;10.75;8.90;;;20.60;99.90;;;;;;5014069;28;20512;-68
2022/04/01 04:00:12;;;;;;;13.25;9.57;;;20.60;99.90;;;;;;5030250;23;20136;-53
2022/04/01 04:02:46;;;;;;;12.55;9.18;;;20.50;99.90;;;;;;5034319;28;20472;-53
2022/04/01 04:05:13;;;;;;;10.90;8.38;;;20.50;99.90;;;;;;5033838;28;20021;-53
2022/04/01 04:07:41;;;;;;;12.25;8.25;;;20.50;99.90;;;;;;5033846;28;20032;-53
2022/04/01 04:10:07;;;;;;;12.05;8.73;;;20.50;99.90;;;;;;5033528;28;20033;-53
2022/04/01 04:12:35;;;;;;;12.53;9.67;;;20.50;99.90;;;;;;5033607;28;20398;-53
2022/04/01 04:15:02;;;;;;;12.85;8.98;;;20.50;99.90;;;;;;5033266;28;20282;-52
2022/04/01 04:17:37;;;;;;;13.43;9.00;;;20.50;99.90;;;;;;5033341;28;20025;-52
2022/04/01 04:20:09;;;;;;;12.93;8.93;;;20.50;99.90;;;;;;5033259;28;20104;-51
2022/04/01 04:22:50;;;;;;;12.23;8.65;;;20.50;99.90;;;;;;5033481;28;20033;-52
2022/04/01 04:25:21;;;;;;;12.60;8.73;;;20.50;99.90;;;;;;5033242;28;20029;-52
2022/04/01 04:27:58;;;;;;;12.82;9.38;;;20.50;99.90;;;;;;5033228;28;20056;-51
2022/04/01 04:30:37;;;;;;;13.95;8.70;;;20.50;99.90;;;;;;5033285;28;20523;-52
2022/04/01 04:33:04;;;;;;;11.00;7.88;;;20.50;99.90;;;;;;5033170;28;20029;-51
2022/04/01 04:35:30;;;;;;;10.90;8.23;;;20.50;99.90;;;;;;5032979;28;20034;-51
2022/04/01 04:37:58;;;;;;;11.70;8.55;;;20.50;99.90;;;;;;5031839;28;20104;-51
2022/04/01 04:40:25;;;;;;;12.80;7.90;;;20.50;99.90;;;;;;5033134;28;20025;-50
2022/04/01 04:42:51;;;;;;;12.50;9.18;;;20.50;99.90;;;;;;5033029;28;20457;-50
2022/04/01 04:45:22;;;;;;;10.05;8.05;;;20.50;99.90;;;;;;5031949;28;20462;-51
2022/04/01 04:47:49;;;;;;;11.45;8.00;;;20.50;99.90;;;;;;5032791;28;20469;-51
2022/04/01 04:50:16;;;;;;;12.98;9.10;;;20.50;99.90;;;;;;5033066;28;20025;-51
2022/04/01 04:52:48;;;;;;;11.93;8.88;;;20.40;99.90;;;;;;5032847;28;20034;-51
2022/04/01 04:55:15;;;;;;;10.82;8.95;;;20.40;99.90;;;;;;5033041;28;20476;-51
2022/04/01 04:57:43;;;;;;;13.20;8.45;;;20.40;99.90;;;;;;5032924;28;20047;-51
2022/04/01 05:00:10;;;;;;;11.07;8.30;;;20.40;99.90;;;;;;5032535;28;20463;-51
2022/04/01 05:02:49;;;;;;;11.18;8.70;;;20.40;99.90;;;;;;5032513;28;20037;-51
2022/04/01 05:05:36;;;;;;;10.10;7.55;;;20.40;99.90;;;;;;5032599;28;20025;-52
2022/04/01 05:08:11;;;;;;;11.50;7.85;;;20.40;99.90;;;;;;5032448;28;20361;-52
2022/04/01 05:11:00;;;;;;;11.48;8.20;;;20.40;99.90;;;;;;5032334;28;20026;-52
2022/04/01 05:13:58;;;;;;;11.32;8.52;;;20.40;99.90;;;;;;5021632;28;20030;-53
2022/04/01 05:16:47;;;;;;;10.20;7.63;;;20.40;99.90;;;;;;5032191;28;20408;-51
2022/04/01 05:19:14;;;;;;;14.00;9.48;;;20.40;99.90;;;;;;5032199;28;20018;-52
2022/04/01 05:21:52;;;;;;;10.35;7.82;;;20.40;99.90;;;;;;5032393;28;20051;-52
2022/04/01 05:24:26;;;;;;;11.68;8.68;;;20.40;99.90;;;;;;5032635;28;20049;-52
2022/04/01 05:26:55;;;;;;;11.45;8.15;;;20.40;99.90;;;;;;5032087;28;20388;-53
2022/04/01 05:29:26;;;;;;;10.57;7.68;;;20.40;99.90;;;;;;5031005;28;20076;-51
2022/04/01 05:31:55;;;;;;;11.68;8.05;;;20.40;99.90;;;;;;5032072;28;20032;-51
2022/04/01 05:34:40;;;;;;;10.43;8.00;;;20.40;99.90;;;;;;5031762;28;20187;-51
2022/04/01 05:37:07;;;;;;;12.20;8.50;;;20.40;99.90;;;;;;5031875;28;20029;-52
2022/04/01 05:39:35;;;;;;;10.83;7.47;;;20.40;99.90;;;;;;5031862;28;20029;-52
2022/04/01 05:42:01;;;;;;;11.30;7.97;;;20.40;99.90;;;;;;5031918;28;20047;-52
2022/04/01 05:44:29;;;;;;;11.32;8.48;;;20.40;99.90;;;;;;5031774;28;20107;-52
2022/04/01 05:46:56;;;;;;;9.38;7.80;;;20.40;99.90;;;;;;5031788;28;20117;-52
2022/04/01 05:49:22;;;;;;;11.68;8.25;;;20.40;99.90;;;;;;5031488;28;20048;-51
2022/04/01 05:51:48;;;;;;;10.55;7.93;;;20.30;99.90;;;;;;5031890;28;20068;-52
2022/04/01 05:54:19;;;;;;;11.40;8.38;;;20.30;99.90;;;;;;5031707;28;20501;-52
2022/04/01 05:56:49;;;;;;;11.07;7.22;;;20.30;99.90;;;;;;5031150;28;20072;-51
2022/04/01 05:59:22;;;;;;;12.05;8.90;;;20.30;99.90;;;;;;5031415;28;20033;-51
2022/04/01 06:02:16;;;;;;;11.35;8.57;;;20.30;99.90;;;;;;5030225;28;20117;-52
2022/04/01 06:04:54;;;;;;;11.15;8.55;;;20.30;99.90;;;;;;5029999;28;20376;-52
2022/04/01 06:07:44;;;;;;;11.45;8.38;;;20.30;99.90;;;;;;5031565;28;20033;-52
2022/04/01 06:10:25;;;;;;;11.70;7.85;;;20.30;99.90;;;;;;5031329;28;20029;-51
2022/04/01 06:13:23;;;;;;;12.48;8.32;;;20.30;99.90;;;;;;5031503;28;20061;-52
2022/04/01 06:16:00;;;;;;;12.77;8.90;;;20.30;99.90;;;;;;5006780;28;20044;-51
2022/04/01 06:18:44;;;;;;;12.38;9.02;;;20.30;99.90;;;;;;5031307;28;20087;-51
2022/04/01 06:21:15;;;;;;;11.68;8.27;;;20.30;99.90;;;;;;5031153;28;20032;-52
2022/04/01 06:24:09;;;;;;;11.40;8.50;;;20.30;99.90;;;;;;5031232;28;20022;-52
2022/04/01 06:26:40;;;;;;;12.15;9.13;;;20.30;99.90;;;;;;5031097;28;20029;-51
2022/04/01 06:29:39;;;;;;;14.25;9.05;;;20.30;99.90;;;;;;5031144;28;20083;-52
2022/04/01 06:32:07;;;;;;;12.35;8.60;;;20.30;99.90;;;;;;4998294;28;20869;-52
2022/04/01 06:34:52;;;;;;;11.43;8.32;;;20.30;99.90;;;;;;5031089;28;20033;-52
2022/04/01 06:37:29;;;;;;;13.30;9.18;;;20.30;99.90;;;;;;5031230;28;20034;-52
2022/04/01 06:39:58;;;;;;;12.55;9.23;;;20.30;99.90;;;;;;5030998;28;20057;-52
2022/04/01 06:42:28;;;;;;;14.43;10.15;;;20.30;99.90;;;;;;5031041;28;20083;-52
2022/04/01 06:44:54;;;;;;;13.15;9.50;;;20.30;99.90;;;;;;5030907;28;20037;-52
2022/04/01 06:47:20;;;;;;;12.95;9.27;;;20.30;99.90;;;;;;5031108;28;20025;-52
2022/04/01 06:49:45;;;;;;;13.13;9.32;;;20.30;99.90;;;;;;5030799;28;20096;-52
2022/04/01 06:52:11;;;;;;;12.27;9.20;;;20.30;99.90;;;;;;5030833;28;20018;-52
2022/04/01 06:54:37;;;;;;;12.73;9.40;;;20.30;99.90;;;;;;5031037;28;20021;-52
2022/04/01 06:57:03;;;;;;;10.80;8.40;;;20.30;99.90;;;;;;5030827;28;20121;-52
2022/04/01 06:59:29;;;;;;;12.70;9.57;;;20.30;99.90;;;;;;5030837;28;20033;-52
2022/04/01 07:01:55;;;;;;;14.70;9.73;;;20.40;99.90;;;;;;5030473;28;20049;-51
2022/04/01 07:04:21;;;;;;;12.93;9.43;;;20.40;99.90;;;;;;5030901;28;20025;-52
2022/04/01 07:06:47;;;;;;;11.40;9.27;;;20.30;99.90;;;;;;5030658;28;20030;-51
2022/04/01 07:09:13;;;;;;;13.20;9.07;;;20.40;99.90;;;;;;5034303;28;20028;-51
2022/04/01 07:11:39;;;;;;;13.75;9.38;;;20.40;99.90;;;;;;5034740;28;20029;-51
2022/04/01 07:14:04;;;;;;;13.20;9.65;;;20.40;99.90;;;;;;5034590;28;20021;-52
2022/04/01 07:16:30;;;;;;;12.02;8.57;;;20.40;99.90;;;;;;5034513;28;20065;-51
2022/04/01 07:18:56;;;;;;;11.55;8.77;;;20.40;99.90;;;;;;5034507;28;20536;-51
2022/04/01 07:21:23;;;;;;;11.52;8.75;;;20.40;99.90;;;;;;5034484;28;20028;-52
2022/04/01 07:23:49;;;;;;;12.53;8.30;;;20.40;99.90;;;;;;5034321;28;20025;-51
2022/04/01 07:26:14;;;;;;;11.40;8.25;;;20.40;99.90;;;;;;5034305;28;20084;-52
2022/04/01 07:28:40;;;;;;;10.75;8.55;;;20.40;99.90;;;;;;5034300;28;20021;-52
2022/04/01 07:33:51;;;;;;;11.93;7.93;;;20.40;99.90;;;;;;5034304;28;20036;-51
2022/04/01 07:36:20;;;;;;;12.30;8.50;;;20.40;99.90;;;;;;5034153;28;20042;-52
2022/04/01 07:38:46;;;;;;;13.98;8.05;;;20.40;99.90;;;;;;5034293;28;20024;-52
2022/04/01 07:41:11;;;;;;;12.30;8.80;;;20.40;99.90;;;;;;5034156;28;20092;-52
2022/04/01 07:43:37;;;;;;;11.15;8.18;;;20.40;99.90;;;;;;5034071;28;20068;-52
2022/04/01 07:46:04;;;;;;;11.65;8.00;;;20.40;99.90;;;;;;5034032;28;20116;-51
2022/04/01 07:48:30;;;;;;;12.93;7.90;;;20.40;99.90;;;;;;5033998;28;20057;-51
2022/04/01 07:50:56;;;;;;;11.18;7.88;;;20.40;99.90;;;;;;5034342;28;20059;-52
2022/04/01 07:53:22;;;;;;;12.05;7.80;;;20.40;99.90;;;;;;5033962;28;20081;-52
2022/04/01 07:55:50;;;;;;;11.52;8.23;;;20.50;99.90;;;;;;5033895;28;20048;-52
2022/04/01 07:58:18;;;;;;;12.35;7.80;;;20.40;99.90;;;;;;5033788;28;20092;-52
2022/04/01 08:00:44;;;;;;;10.60;7.93;;;20.40;99.90;;;;;;5033707;28;20041;-51
2022/04/01 08:03:11;;;;;;;9.75;7.72;;;20.40;99.90;;;;;;5032427;28;20477;-53
2022/04/01 08:05:37;;;;;;;14.10;8.15;;;20.40;99.90;;;;;;5033838;28;20029;-52
2022/04/01 08:08:03;;;;;;;10.85;7.47;;;20.40;99.90;;;;;;5033650;28;20025;-51
2022/04/01 08:10:29;;;;;;;11.48;7.75;;;20.40;99.90;;;;;;5033233;28;20025;-52
2022/04/01 08:12:55;;;;;;;11.10;7.72;;;20.40;99.90;;;;;;5032319;28;20473;-52
2022/04/01 08:15:21;;;;;;;11.55;7.80;;;20.40;99.90;;;;;;5033436;28;20413;-53
2022/04/01 08:17:47;;;;;;;12.75;7.47;;;20.40;99.90;;;;;;5033452;28;20024;-53
2022/04/01 08:20:13;;;;;;;11.18;7.18;;;20.50;99.90;;;;;;5033329;28;20485;-52
2022/04/01 08:22:40;;;;;;;9.55;6.93;;;20.50;99.90;;;;;;5032012;28;20389;-52
2022/04/01 08:25:07;;;;;;;10.23;7.05;;;20.50;99.90;;;;;;5032049;28;20025;-53
2022/04/01 08:27:33;;;;;;;9.40;7.00;;;20.50;99.90;;;;;;5033236;28;20029;-53
2022/04/01 08:29:59;;;;;;;9.48;7.00;;;20.60;99.90;;;;;;5033208;28;20075;-51
2022/04/01 08:32:29;;;;;;;8.32;5.97;;;20.60;99.90;;;;;;5033449;28;20025;-51
2022/04/01 08:34:56;;;;;;;10.45;6.93;;;20.60;99.90;;;;;;5033182;28;20071;-52
2022/04/01 08:37:22;;;;;;;9.60;7.00;;;20.60;99.90;;;;;;5032985;28;20033;-54
2022/04/01 08:39:48;;;;;;;9.77;7.03;;;20.60;99.90;;;;;;5032959;28;20079;-51
2022/04/01 08:42:14;;;;;;;12.38;7.72;;;20.60;99.90;;;;;;5032904;28;20030;-52
2022/04/01 08:44:41;;;;;;;10.20;6.72;;;20.60;99.90;;;;;;5031533;28;20021;-52
2022/04/01 08:47:08;;;;;;;9.88;6.45;;;20.60;99.90;;;;;;5032867;28;20022;-52
2022/04/01 08:49:35;;;;;;;8.75;6.47;;;20.60;99.90;;;;;;5032556;28;20437;-51
2022/04/01 08:52:02;;;;;;;10.35;6.88;;;20.60;99.90;;;;;;5032915;28;20403;-53
2022/04/01 08:54:32;;;;;;;10.00;6.60;;;20.60;99.90;;;;;;5032909;28;20037;-53
2022/04/01 08:56:57;;;;;;;8.18;6.55;;;20.60;99.90;;;;;;5031707;28;20029;-52
2022/04/01 08:59:29;;;;;;;9.95;6.55;;;20.60;99.90;;;;;;5032671;28;20025;-52
2022/04/01 09:02:04;;;;;;;9.30;6.47;;;20.60;99.90;;;;;;5032331;28;20168;-52
2022/04/01 09:04:30;;;;;;;8.25;6.07;;;20.60;99.90;;;;;;5032486;28;20028;-52
2022/04/01 09:06:56;;;;;;;8.80;5.95;;;20.60;99.90;;;;;;5032436;28;20377;-53
2022/04/01 09:09:24;;;;;;;9.18;5.60;;;20.60;99.90;;;;;;5032357;28;20021;-52
2022/04/01 09:12:07;;;;;;;9.00;6.18;;;20.60;99.90;;;;;;5032556;28;20025;-52
2022/04/01 09:14:33;;;;;;;10.90;5.90;;;20.60;99.90;;;;;;5032386;28;20029;-53
2022/04/01 09:17:01;;;;;;;9.80;6.28;;;20.60;99.90;;;;;;5032551;28;20021;-52
2022/04/01 09:19:35;;;;;;;9.13;6.03;;;20.60;99.90;;;;;;5032145;28;20079;-52
2022/04/01 09:22:22;;;;;;;9.45;5.82;;;20.60;99.90;;;;;;5032258;28;20107;-52
2022/04/01 09:25:02;;;;;;;8.70;6.40;;;20.60;99.90;;;;;;5032048;28;20041;-53
2022/04/01 09:27:37;;;;;;;8.90;5.95;;;20.60;99.90;;;;;;5032064;28;20049;-53
2022/04/01 09:30:05;;;;;;;7.60;5.53;;;20.60;99.90;;;;;;5031702;28;20022;-52
2022/04/01 09:32:46;;;;;;;9.35;5.78;;;20.60;99.90;;;;;;5031949;28;20030;-53
2022/04/01 09:35:13;;;;;;;8.52;5.68;;;20.60;99.90;;;;;;5031811;28;20033;-53
2022/04/01 09:37:43;;;;;;;6.43;5.03;;;20.60;99.90;;;;;;5031896;28;20516;-53
2022/04/01 09:40:10;;;;;;;9.50;5.82;;;20.60;99.90;;;;;;5031863;28;20026;-52
2022/04/01 09:42:36;;;;;;;;;;;20.60;99.90;;;;;;5032313;28;20030;-53
2022/04/01 09:45:03;;;;;;;9.52;5.85;;;20.60;99.90;;;;;;5031947;28;19928;-52
2022/04/01 09:47:36;;;;;;;9.02;5.78;;;20.60;99.90;;;;;;5031697;28;20496;-53
2022/04/01 09:50:10;;;;;;;8.15;5.70;;;20.60;99.90;;;;;;5031815;28;20075;-52
2022/04/01 09:52:36;;;;;;;9.50;5.60;;;20.60;99.90;;;;;;5031590;28;20021;-52
2022/04/01 09:55:03;;;;;;;7.20;5.65;;;20.60;99.90;;;;;;5031623;28;20033;-52
2022/04/01 09:57:30;;;;;;;6.85;5.45;;;20.60;99.90;;;;;;5031568;28;20079;-53
2022/04/01 09:59:56;;;;;;;9.57;5.80;;;20.60;99.90;;;;;;5031333;28;20048;-53
2022/04/01 10:02:21;;;;;;;8.23;5.28;;;20.60;99.90;;;;;;5031449;28;20266;-53
2022/04/01 10:04:49;;;;;;;8.55;5.15;;;20.50;99.90;;;;;;5031529;28;20083;-52
2022/04/01 10:07:17;;;;;;;8.43;5.72;;;20.50;99.90;;;;;;5031390;28;20088;-52
2022/04/01 10:09:43;;;;;;;;;;;20.60;99.90;;;;;;5031880;28;20021;-52
2022/04/01 10:12:13;;;;;;;5.70;4.53;;;20.60;99.90;;;;;;5031364;28;19905;-52
2022/04/01 10:14:40;;;;;;;7.63;4.90;;;20.60;99.90;;;;;;5031228;28;20029;-52
2022/04/01 10:17:10;;;;;;;7.60;5.43;;;20.70;99.90;;;;;;5031687;28;20033;-51
2022/04/01 10:19:39;;;;;;;6.97;4.50;;;20.70;99.90;;;;;;5031565;28;20022;-52
2022/04/01 10:22:06;;;;;;;8.05;5.15;;;20.70;99.90;;;;;;5031425;28;20032;-51
2022/04/01 10:24:40;;;;;;;8.80;5.07;;;20.80;99.90;;;;;;5031273;28;20415;-52
2022/04/01 10:27:23;;;;;;;8.93;5.10;;;20.80;99.90;;;;;;5031517;28;20409;-53
2022/04/01 10:29:49;;;;;;;8.90;5.25;;;20.90;99.90;;;;;;5029920;28;20025;-53
2022/04/01 10:32:26;;;;;;;9.02;5.40;;;20.90;99.90;;;;;;5031081;28;20105;-52
2022/04/01 10:34:57;;;;;;;9.85;5.82;;;20.90;99.90;;;;;;5031078;28;20041;-53
2022/04/01 10:37:25;;;;;;;8.50;5.35;;;21.00;99.90;;;;;;5031298;28;20029;-52
2022/04/01 10:39:58;;;;;;;7.70;4.82;;;21.00;99.90;;;;;;5031089;28;20045;-51
2022/04/01 10:42:32;;;;;;;10.40;4.82;;;21.10;99.90;;;;;;5031913;28;20029;-52
2022/04/01 10:45:01;;;;;;;9.80;5.78;;;21.10;99.90;;;;;;5035016;28;20053;-51
2022/04/01 10:53:37;;;;;;;7.68;5.45;;;21.20;99.90;;;;;;5035406;28;20067;-53
2022/04/01 10:56:22;;;;;;;9.93;5.32;;;21.20;99.90;;;;;;5034814;28;20477;-54
2022/04/01 10:59:15;;;;;;;7.60;5.15;;;21.20;99.90;;;;;;5034866;28;20056;-52
2022/04/01 11:01:53;;;;;;;7.40;5.07;;;21.20;99.90;;;;;;5011973;28;20046;-53
2022/04/01 11:04:19;;;;;;;7.60;5.22;;;21.30;99.90;;;;;;5034701;28;20496;-53
2022/04/01 11:07:23;;;;;;;7.63;4.60;;;21.30;99.90;;;;;;5034736;28;20053;-52
2022/04/01 11:10:07;;;;;;;7.60;4.72;;;21.30;99.90;;;;;;5034460;28;20062;-53
2022/04/01 11:12:34;;;;;;;7.32;4.75;;;21.40;99.90;;;;;;5034626;28;20144;-53
2022/04/01 11:14:59;;;;;;;8.05;4.65;;;21.40;99.90;;;;;;5034512;28;20084;-52
2022/04/01 11:17:49;;;;;;;8.50;5.35;;;21.40;99.90;;;;;;5034830;28;20049;-52
2022/04/01 11:20:27;;;;;;;6.70;4.50;;;21.40;99.90;;;;;;5034571;28;20018;-52
2022/04/01 11:22:53;;;;;;;8.15;5.13;;;21.40;99.90;;;;;;5034604;28;20499;-53
2022/04/01 11:25:22;;;;;;;7.28;4.65;;;21.50;99.90;;;;;;5033168;28;20112;-53
2022/04/01 11:28:12;;;;;;;7.25;4.70;;;21.50;99.90;;;;;;5034491;28;20029;-52
2022/04/01 11:30:41;;;;;;;6.65;4.70;;;21.50;99.90;;;;;;5033992;28;20507;-52
2022/04/01 11:33:17;;;;;;;6.45;4.88;;;21.50;99.90;;;;;;5034539;28;20064;-53
2022/04/01 11:35:45;;;;;;;6.13;3.92;;;21.50;99.90;;;;;;5032804;28;20404;-53
2022/04/01 11:38:15;;;;;;;7.40;4.88;;;21.50;99.90;;;;;;5034403;28;20094;-53
2022/04/01 11:40:42;;;;;;;6.38;4.80;;;21.60;99.90;;;;;;5034360;28;20037;-53
2022/04/01 11:43:11;;;;;;;8.40;5.10;;;21.60;99.90;;;;;;5034553;28;20018;-53
2022/04/01 11:45:47;;;;;;;7.10;4.70;;;21.60;99.90;;;;;;5033884;28;20469;-52
2022/04/01 11:48:30;;;;;;;6.63;4.50;;;21.60;99.90;;;;;;5034048;28;20026;-52
2022/04/01 11:51:09;;;;;;;7.05;5.10;;;21.70;99.90;;;;;;5033933;28;20048;-53
2022/04/01 11:53:39;;;;;;;7.78;5.50;;;21.70;99.90;;;;;;5033262;28;20029;-52
2022/04/01 11:56:08;;;;;;;8.60;4.70;;;21.70;99.90;;;;;;5033763;28;20034;-53
2022/04/01 11:58:51;;;;;;;7.25;5.03;;;21.70;99.90;;;;;;5033772;28;20032;-53
2022/04/01 12:01:18;;;;;;;7.85;4.72;;;21.80;99.90;;;;;;5033502;28;20056;-52
2022/04/01 12:03:43;;;;;;;7.32;4.32;;;21.80;99.90;;;;;;5033980;28;20037;-52
2022/04/01 12:08:53;;;;;;;8.00;4.53;;;21.80;99.90;;;;;;5033786;28;20032;-52
2022/04/01 12:11:19;;;;;;;8.57;5.05;;;21.80;99.90;;;;;;5033592;28;20033;-52
2022/04/01 12:13:54;;;;;;;7.40;4.75;;;21.90;99.90;;;;;;5033423;28;20037;-52
2022/04/01 12:16:21;;;;;;;7.80;4.60;;;21.90;99.90;;;;;;5015594;28;20041;-52
2022/04/01 12:18:49;;;;;;;7.10;4.88;;;21.90;99.90;;;;;;5033243;28;20113;-53
2022/04/01 12:21:18;;;;;;;9.20;4.70;;;21.90;99.90;;;;;;5033165;28;20412;-52
2022/04/01 12:23:46;;;;;;;6.15;4.28;;;21.90;99.90;;;;;;5033419;28;20389;-52
2022/04/01 12:26:13;;;;;;;5.47;4.30;;;21.90;99.90;;;;;;5033503;28;20022;-52
2022/04/01 12:28:41;;;;;;;6.68;4.32;;;21.90;99.90;;;;;;5033256;28;20026;-53
2022/04/01 12:31:25;;;;;;;6.13;4.38;;;21.90;99.90;;;;;;5033321;28;20253;-52
2022/04/01 12:33:53;;;;;;;7.22;4.57;;;21.90;99.90;;;;;;5033203;28;20102;-53
2022/04/01 12:36:33;;;;;;;;;;;22.00;99.90;;;;;;5033492;28;20037;-53
2022/04/01 12:39:03;;;;;;;7.13;4.70;;;22.00;99.90;;;;;;5033377;28;20015;-52
2022/04/01 12:41:29;;;;;;;6.82;4.78;;;22.00;99.90;;;;;;5031506;28;20449;-53
2022/04/01 12:43:56;;;;;;;6.50;4.20;;;22.00;99.90;;;;;;5031652;28;20112;-52
2022/04/01 12:46:34;;;;;;;7.47;4.10;;;22.00;99.90;;;;;;5032882;28;20427;-53
2022/04/01 12:49:11;;;;;;;6.78;4.70;;;22.00;99.90;;;;;;5032997;28;20041;-53
2022/04/01 12:51:40;;;;;;;8.50;4.88;;;22.00;99.90;;;;;;5032854;28;20552;-52
2022/04/01 12:54:11;;;;;;;7.63;4.53;;;22.00;99.90;;;;;;5032713;28;20079;-52
2022/04/01 12:56:44;;;;;;;6.55;4.43;;;22.00;99.90;;;;;;5032704;28;20029;-53
2022/04/01 12:59:16;;;;;;;6.50;4.50;;;22.00;99.90;;;;;;5032727;28;20025;-51
2022/04/01 13:01:44;;;;;;;7.18;4.15;;;22.00;99.90;;;;;;5032479;28;20136;-52
2022/04/01 13:04:21;;;;;;;8.95;4.63;;;22.10;99.90;;;;;;5032509;28;20481;-52
2022/04/01 13:07:09;;;;;;;7.18;4.80;;;22.10;99.90;;;;;;5032052;28;20021;-51
2022/04/01 13:09:55;;;;;;;7.47;5.00;;;22.10;99.90;;;;;;5032412;28;20349;-51
2022/04/01 13:12:41;;;;;;;6.68;4.60;;;22.10;99.90;;;;;;5032550;28;20049;-51